x

La Perouse Bank (46206) Wave Buoy

7:00pm - Thu 20th Nov 2014 All times are PST. -8 hours from GMT.

  • Sig Wave height 8.9ft
  • Peak Period 10s
  • Wind
    9mph, 13mph gusts
  • Sea Temp 54°f
  • Air Temp 53°f
  • Sea Pressure 1011.3mb
  • La Perouse Bank
  • La Perouse Bank

More Historic Weather Station data

Upgrade to MSW Pro to gain access to the past 30 days of data for over 8000 Wavebouys and Weather Stations around the globe.

Join Pro

Comparision Forecast

View Surf forecast
   
Thu 11/20 7:00pm 9ft 10s 9 13 mph 1011.3mb 54f 53f
6:00pm 9.5ft 9s 9 11 mph 1011.4mb 54f 53f
5:00pm 9ft 10s 2 4 mph 1011.5mb 54f 52f
4:00pm 9ft 9s 16 18 mph 1011.1mb 54f 53f
3:00pm 9.5ft 10s 18 20 mph 1011.2mb 54f 53f
2:00pm 10.5ft 10s 16 18 mph 1011.2mb 54f 53f
1:00pm 10ft 10s 18 25 mph 1011.1mb 54f 53f
12:00pm 10ft 10s 18 22 mph 1010.8mb 54f 54f
11:00am 9ft 10s 20 25 mph 1010.8mb 54f 54f
10:00am 9ft 10s 20 25 mph 1010.6mb 54f 54f
9:00am 9.5ft 10s 20 25 mph 1010.2mb 54f 54f
8:00am 9ft 10s 18 22 mph 1009.6mb 54f 54f
7:00am 10ft 10s 20 25 mph 1009.6mb 54f 54f
6:00am 10ft 10s 20 25 mph 1009.3mb 54f 54f
5:00am 10.5ft 10s 18 22 mph 1008.8mb 54f 54f
4:00am 11ft 10s 18 22 mph 1008mb 54f 54f
3:00am 11.5ft 11s 20 29 mph 1006.7mb 54f 54f
2:00am 11ft 10s 22 36 mph 1005.2mb 54f 51f
1:00am 10ft 11s 29 36 mph 1005.4mb 54f 50f
12:00am 9ft 11s 22 27 mph 1006mb 54f 53f
Wed 11/19 11:00pm 9.5ft 12s 27 31 mph 1006.1mb 54f 53f
10:00pm 9ft 11s 22 29 mph 1006.4mb 54f 54f
9:00pm 9ft 12s 22 27 mph 1006.6mb 54f 53f
8:00pm 9ft 11s 25 29 mph 1007mb 54f 53f
7:00pm 9ft 11s 22 27 mph 1007.1mb 54f 53f
6:00pm 9ft 12s 27 31 mph 1007.1mb 54f 53f
5:00pm 9ft 11s 22 27 mph 1007.4mb 54f 54f
4:00pm 9ft 11s 22 27 mph 1007.6mb 54f 54f
3:00pm 9.5ft 12s 22 27 mph 1008.2mb 54f 53f
1:00pm 8.5ft 11s 22 29 mph 1008.7mb 54f 53f
12:00pm 9ft 11s 22 29 mph 1009.5mb 54f 53f
11:00am 8.5ft 11s 25 29 mph 1010.5mb 55f 52f
10:00am 8ft 11s 22 27 mph 1011.1mb 55f 52f
9:00am 8ft 12s 22 27 mph 1011.8mb 55f 52f
8:00am 8ft 11s 25 29 mph 1011.9mb 54f 52f
7:00am 8ft 11s 25 31 mph 1012.4mb 54f 52f
6:00am 7.5ft 10s 27 31 mph 1012.7mb 54f 52f
5:00am 7ft 11s 25 29 mph 1013.4mb 54f 51f
4:00am 7ft 10s 25 31 mph 1013.9mb 54f 51f
3:00am 6ft 9s 25 29 mph 1014.7mb 54f 52f
2:00am 6ft 10s 25 29 mph 1015.3mb 54f 51f
1:00am 6ft 5s 25 29 mph 1015.6mb 55f 52f
12:00am 5.5ft 8s 27 31 mph 1015.5mb 55f 51f
Tue 11/18 11:00pm 6ft 5s 25 29 mph 1016.1mb 55f 51f
10:00pm 6ft 5s 25 29 mph 1016.1mb 54f 52f
9:00pm 5.5ft 8s 25 29 mph 1016.1mb 54f 51f
8:00pm 5ft 5s 25 27 mph 1016.2mb 54f 51f
7:00pm 5ft 8s 22 25 mph 1016.6mb 54f 52f
6:00pm 5ft 5s 22 25 mph 1016.9mb 54f 52f
5:00pm 5ft 5s 20 25 mph 1017.5mb 54f 51f
4:00pm 5ft 6s 22 25 mph 1017.7mb 54f 52f
3:00pm 5ft 6s 20 25 mph 1017.9mb 54f 51f
2:00pm 5ft 6s 20 25 mph 1018.2mb 54f 52f
1:00pm 5.5ft 6s 22 25 mph 1018mb 54f 52f
12:00pm 5ft 5s 22 27 mph 1018.5mb 54f 51f
11:00am 5ft 8s 25 29 mph 1018.4mb 54f 51f
10:00am 5ft 5s 20 25 mph 1018.7mb 54f 51f
9:00am 5ft 6s 18 22 mph 1018.9mb 54f 51f
8:00am 5ft 6s 20 22 mph 1018.5mb 54f 51f
7:00am 5ft 6s 20 22 mph 1018.4mb 54f 50f
6:00am 5.5ft 6s 18 25 mph 1018.7mb 54f 50f
5:00am 5ft 6s 22 27 mph 1018.8mb 54f 51f
4:00am 5.5ft 6s 22 27 mph 1019.2mb 54f 51f
3:00am 5ft 5s 22 27 mph 1019.3mb 54f 51f
2:00am 5ft 5s 22 27 mph 1019.8mb 54f 51f
1:00am 5ft 6s 22 25 mph 1019.6mb 54f 51f
12:00am 5ft 5s 22 27 mph 1020.1mb 54f 50f
Mon 11/17 11:00pm 5ft 6s 22 27 mph 1020.2mb 54f 50f
10:00pm 5ft 5s 22 25 mph 1020.7mb 54f 51f
9:00pm 5ft 5s 20 25 mph 1021.2mb 54f 51f
8:00pm 5ft 5s 18 25 mph 1021.5mb 54f 51f
7:00pm 5ft 5s 20 22 mph 1022.1mb 54f 51f
6:00pm 5.5ft 11s 22 27 mph 1022.4mb 54f 51f
5:00pm 5ft 10s 20 22 mph 1023mb 54f 52f
4:00pm 6ft 11s 20 22 mph 1023.7mb 54f 52f
3:00pm 6ft 6s 20 25 mph 1024mb 54f 51f
2:00pm 6ft 6s 22 27 mph 1024.2mb 54f 51f
1:00pm 6.5ft 12s 20 27 mph 1024.5mb 54f 51f
12:00pm 6.5ft 12s 22 25 mph 1025.1mb 54f 50f
11:00am 6ft 12s 25 29 mph 1025.6mb 54f 50f
10:00am 5ft 13s 22 27 mph 1025.9mb 54f 50f
9:00am 5ft 13s 20 25 mph 1026.3mb 54f 49f
8:00am 5ft 13s 18 20 mph 1027mb 53f 49f
7:00am 5.5ft 12s 18 22 mph 1026.7mb 53f 49f
6:00am 5ft 11s 18 22 mph 1027.1mb 54f 49f
5:00am 5ft 12s 18 20 mph 1027.6mb 54f 50f